Time;durP1;ratioP1;P1;durP2;ratioP2;P2;SDS_P1;SDS_P2;PMS_P1;PMS_P2;Temp;Humidity;BMP_temperature;BMP_pressure;BME280_temperature;BME280_humidity;BME280_pressure;Samples;Min_cycle;Max_cycle;Signal;HPM_P1;HPM_P2
2021/05/25 00:00:12;;;;;;;0.93;0.93;;;;;;;9.33;82.89;96577.44;5075943;28;20209;-64
2021/05/25 00:02:39;;;;;;;1.00;1.00;;;;;;;9.18;83.51;96577.88;5095118;28;20165;-64
2021/05/25 00:05:06;;;;;;;0.90;0.90;;;;;;;9.14;82.92;96570.66;5094147;28;20181;-64
2021/05/25 00:07:31;;;;;;;0.87;0.87;;;;;;;9.20;82.75;96580.25;5094605;28;20236;-64
2021/05/25 00:09:57;;;;;;;0.97;0.93;;;;;;;9.23;81.93;96576.41;5094507;28;20571;-64
2021/05/25 00:12:23;;;;;;;1.30;1.20;;;;;;;9.17;81.15;96570.25;5093792;28;20182;-64
2021/05/25 00:14:49;;;;;;;0.80;0.80;;;;;;;9.12;81.68;96572.72;5075960;28;20195;-65
2021/05/25 00:17:14;;;;;;;0.90;0.90;;;;;;;9.12;81.71;96570.13;5093931;28;20574;-64
2021/05/25 00:19:40;;;;;;;0.90;0.90;;;;;;;9.02;81.01;96575.09;5094302;28;20195;-63
2021/05/25 00:22:08;;;;;;;1.90;0.90;;;;;;;9.05;81.56;96574.63;5093612;28;20704;-63
2021/05/25 00:24:33;;;;;;;0.90;0.90;;;;;;;8.98;81.39;96577.31;5094485;28;20173;-64
2021/05/25 00:26:59;;;;;;;0.87;0.80;;;;;;;9.01;81.34;96574.28;5094492;28;20554;-64
2021/05/25 00:29:24;;;;;;;0.80;0.80;;;;;;;8.98;81.56;96572.09;5093611;28;20256;-64
2021/05/25 00:31:51;;;;;;;0.90;0.90;;;;;;;8.96;82.13;96568.94;5094352;28;20248;-64
2021/05/25 00:34:16;;;;;;;1.00;0.90;;;;;;;8.90;82.36;96577.66;5093049;28;20176;-65
2021/05/25 00:36:42;;;;;;;1.20;1.13;;;;;;;8.94;82.25;96575.38;5094192;28;20200;-64
2021/05/25 00:39:07;;;;;;;0.90;0.90;;;;;;;8.96;82.35;96574.16;5093711;28;20204;-66
2021/05/25 00:41:35;;;;;;;1.30;1.20;;;;;;;8.84;83.11;96564.66;5075955;28;20202;-64
2021/05/25 00:44:01;;;;;;;0.80;0.80;;;;;;;8.87;83.28;96572.03;5094287;28;20191;-65
2021/05/25 00:46:27;;;;;;;0.97;0.83;;;;;;;8.84;83.10;96570.69;5093224;28;20208;-64
2021/05/25 00:48:52;;;;;;;0.90;0.90;;;;;;;8.71;83.74;96574.25;5093175;28;20181;-65
2021/05/25 00:51:18;;;;;;;0.90;0.90;;;;;;;8.77;83.60;96562.13;5093000;28;20667;-64
2021/05/25 00:53:43;;;;;;;1.10;1.10;;;;;;;8.83;83.13;96568.28;5093949;28;20180;-64
2021/05/25 00:56:10;;;;;;;1.30;0.90;;;;;;;8.77;83.20;96567.34;5092857;28;20277;-66
2021/05/25 00:58:36;;;;;;;0.80;0.80;;;;;;;8.81;83.41;96568.50;5102146;28;20227;-65
2021/05/25 01:01:03;;;;;;;1.70;1.17;;;;;;;8.71;83.55;96578.69;5094312;28;20185;-64
2021/05/25 01:03:29;;;;;;;0.90;0.90;;;;;;;8.72;84.07;96575.06;5092725;28;20161;-65
2021/05/25 01:05:54;;;;;;;1.20;1.20;;;;;;;8.68;83.99;96585.16;5113691;28;20214;-65
2021/05/25 01:08:21;;;;;;;0.80;0.80;;;;;;;8.65;83.80;96582.16;5113142;28;20164;-64
2021/05/25 01:10:50;;;;;;;0.90;0.90;;;;;;;8.65;84.45;96576.94;5113597;28;20171;-64
2021/05/25 01:13:21;;;;;;;1.73;1.23;;;;;;;8.63;84.13;96576.38;5113328;28;20217;-64
2021/05/25 01:15:48;;;;;;;1.07;0.90;;;;;;;8.63;84.03;96579.00;5111827;28;20180;-65
2021/05/25 01:18:15;;;;;;;1.33;1.23;;;;;;;8.45;84.94;96577.19;5113296;28;20247;-65
2021/05/25 01:20:42;;;;;;;1.23;0.90;;;;;;;8.44;85.65;96582.63;5113012;28;20199;-65
2021/05/25 01:23:13;;;;;;;0.90;0.90;;;;;;;8.62;84.19;96588.63;5113548;28;20187;-66
2021/05/25 01:25:41;;;;;;;1.00;1.00;;;;;;;8.50;84.72;96579.94;5113841;28;20168;-64
2021/05/25 01:28:15;;;;;;;1.47;0.90;;;;;;;8.50;84.70;96568.69;5102327;28;20263;-65
2021/05/25 01:30:44;;;;;;;0.93;0.93;;;;;;;8.43;84.81;96568.75;5093483;28;20208;-64
2021/05/25 01:33:11;;;;;;;1.10;1.00;;;;;;;8.28;85.18;96569.09;5093305;28;20268;-66
2021/05/25 01:35:37;;;;;;;1.10;1.10;;;;;;;8.26;84.76;96576.34;5104396;28;20629;-64
2021/05/25 01:38:05;;;;;;;1.07;0.97;;;;;;;8.37;84.22;96568.81;5113731;28;20243;-64
2021/05/25 01:40:31;;;;;;;1.07;1.00;;;;;;;8.21;84.05;96575.38;5112945;28;20195;-63
2021/05/25 01:42:56;;;;;;;1.03;1.00;;;;;;;8.18;83.91;96574.03;5113717;28;20247;-64
2021/05/25 01:45:25;;;;;;;1.83;1.33;;;;;;;8.20;84.17;96571.97;5112756;28;20191;-68
2021/05/25 01:47:56;;;;;;;2.43;1.40;;;;;;;8.21;83.65;96570.97;5113573;28;20211;-65
2021/05/25 01:50:24;;;;;;;1.00;1.00;;;;;;;8.15;83.38;96571.81;5096421;28;20657;-64
2021/05/25 01:53:08;;;;;;;0.93;0.90;;;;;;;8.23;83.25;96574.16;5092806;28;20213;-65
2021/05/25 01:55:48;;;;;;;3.03;1.10;;;;;;;8.18;83.66;96578.44;5109884;28;20241;-64
2021/05/25 01:58:16;;;;;;;0.97;0.93;;;;;;;8.15;83.38;96582.28;5101021;28;20231;-65
2021/05/25 02:00:45;;;;;;;1.20;1.10;;;;;;;8.16;83.12;96578.66;5091899;28;20197;-64
2021/05/25 02:03:12;;;;;;;0.90;0.90;;;;;;;8.10;83.51;96574.28;5091810;28;20573;-66
2021/05/25 02:05:38;;;;;;;1.17;1.10;;;;;;;8.07;84.00;96585.19;5092849;28;20171;-63
2021/05/25 02:08:06;;;;;;;0.97;0.93;;;;;;;8.09;84.17;96583.13;5092434;28;20169;-65
2021/05/25 02:10:37;;;;;;;0.93;0.90;;;;;;;7.94;84.36;96587.91;5091490;28;20902;-64
2021/05/25 02:13:09;;;;;;;1.00;1.00;;;;;;;7.87;84.70;96595.78;5092636;28;20530;-65
2021/05/25 02:15:35;;;;;;;0.90;0.90;;;;;;;8.00;83.74;96596.69;5090015;28;20267;-65
2021/05/25 02:18:11;;;;;;;0.90;0.90;;;;;;;7.99;83.65;96611.53;5092318;28;20226;-64
2021/05/25 02:20:39;;;;;;;0.90;0.90;;;;;;;8.08;83.15;96614.69;5092144;28;20203;-65
2021/05/25 02:23:05;;;;;;;1.20;1.00;;;;;;;8.09;82.43;96590.97;5092051;28;20184;-64
2021/05/25 02:25:31;;;;;;;1.23;1.23;;;;;;;8.20;81.01;96597.28;5091196;28;20169;-64
2021/05/25 02:27:57;;;;;;;0.87;0.87;;;;;;;8.05;81.52;96584.59;5092288;28;20641;-64
2021/05/25 02:30:23;;;;;;;1.17;1.10;;;;;;;8.17;80.91;96593.31;5091685;28;20153;-65
2021/05/25 02:32:49;;;;;;;1.10;1.00;;;;;;;8.08;80.68;96585.97;5092007;28;20172;-65
2021/05/25 02:35:15;;;;;;;0.90;0.90;;;;;;;7.99;80.93;96593.25;5090707;28;20659;-65
2021/05/25 02:37:40;;;;;;;0.90;0.90;;;;;;;7.94;81.08;96606.16;5091688;28;20208;-64
2021/05/25 02:40:07;;;;;;;1.50;0.90;;;;;;;7.89;81.54;96614.63;5091994;28;20201;-65
2021/05/25 02:42:32;;;;;;;1.07;1.00;;;;;;;7.81;82.21;96625.31;5091064;28;20179;-65
2021/05/25 02:44:58;;;;;;;0.80;0.80;;;;;;;7.83;82.39;96630.34;5091658;28;20188;-64
2021/05/25 02:47:24;;;;;;;1.67;1.10;;;;;;;7.72;82.14;96631.81;5090993;28;20283;-65
2021/05/25 02:49:49;;;;;;;1.03;1.03;;;;;;;7.90;80.34;96624.06;5091568;28;20601;-65
2021/05/25 02:52:16;;;;;;;2.00;1.37;;;;;;;7.80;79.97;96626.34;5090507;28;20176;-65
2021/05/25 02:54:42;;;;;;;0.77;0.77;;;;;;;7.81;79.29;96637.56;5091499;28;20268;-65
2021/05/25 02:57:07;;;;;;;1.13;0.87;;;;;;;7.66;79.47;96632.66;5091113;28;20327;-66
2021/05/25 02:59:34;;;;;;;0.90;0.90;;;;;;;7.66;79.00;96627.47;5109833;28;20215;-65
2021/05/25 03:02:00;;;;;;;0.80;0.80;;;;;;;7.75;77.89;96623.56;5109176;28;20692;-65
2021/05/25 03:04:25;;;;;;;5.83;1.23;;;;;;;7.70;78.22;96623.41;5111112;28;20213;-64
2021/05/25 03:06:51;;;;;;;2.00;1.00;;;;;;;7.78;77.70;96620.56;5111901;28;20206;-64
2021/05/25 03:09:16;;;;;;;1.03;1.00;;;;;;;7.67;77.93;96607.38;5110767;28;20621;-63
2021/05/25 03:11:43;;;;;;;1.10;1.10;;;;;;;7.69;77.67;96606.16;5111379;28;20224;-64
2021/05/25 03:14:08;;;;;;;1.07;1.07;;;;;;;7.72;77.66;96610.16;5109963;28;20233;-64
2021/05/25 03:16:34;;;;;;;0.90;0.90;;;;;;;7.56;77.79;96598.44;5109666;28;20300;-63
2021/05/25 03:18:59;;;;;;;0.90;0.90;;;;;;;7.60;77.37;96604.03;5111697;28;20219;-63
2021/05/25 03:21:24;;;;;;;1.10;1.10;;;;;;;7.53;78.01;96609.28;5111007;28;20156;-64
2021/05/25 03:23:50;;;;;;;0.90;0.90;;;;;;;7.55;77.44;96609.06;5110844;28;20172;-64
2021/05/25 03:26:16;;;;;;;1.00;1.00;;;;;;;7.53;77.78;96612.69;5110055;28;20324;-63
2021/05/25 03:28:42;;;;;;;1.10;0.80;;;;;;;7.48;78.40;96620.34;5112209;28;20179;-65
2021/05/25 03:31:07;;;;;;;1.23;1.03;;;;;;;7.59;78.10;96628.50;5091864;28;20204;-63
2021/05/25 03:33:33;;;;;;;0.90;0.90;;;;;;;7.51;78.43;96629.56;5090544;28;20149;-63
2021/05/25 03:35:59;;;;;;;1.30;1.20;;;;;;;7.51;78.80;96632.19;5091174;28;20601;-68
2021/05/25 03:38:25;;;;;;;0.80;0.80;;;;;;;7.60;78.64;96633.50;5090575;28;20226;-64
2021/05/25 03:40:50;;;;;;;0.97;0.97;;;;;;;7.50;78.93;96638.41;5091168;28;20192;-64
2021/05/25 03:43:17;;;;;;;1.00;1.00;;;;;;;7.53;78.93;96646.59;5090699;28;20176;-66
2021/05/25 03:45:42;;;;;;;1.30;1.00;;;;;;;7.57;78.72;96633.94;5093288;28;20191;-65
2021/05/25 03:48:08;;;;;;;1.00;0.90;;;;;;;7.64;78.61;96639.09;5091286;28;20554;-64
2021/05/25 03:50:33;;;;;;;0.87;0.87;;;;;;;7.72;78.25;96644.88;5090722;28;20199;-64
2021/05/25 03:52:59;;;;;;;1.03;1.03;;;;;;;7.91;77.90;96645.75;5096100;28;20187;-65
2021/05/25 03:55:44;;;;;;;1.93;1.10;;;;;;;7.97;77.61;96644.09;5110547;28;20180;-65
2021/05/25 04:00:55;;;;;;;1.20;0.97;;;;;;;8.36;75.95;96638.53;5111476;28;20171;-64
2021/05/25 04:03:21;;;;;;;1.17;0.70;;;;;;;8.27;76.29;96639.78;5110839;28;20193;-64
2021/05/25 04:05:47;;;;;;;1.07;0.97;;;;;;;8.67;74.40;96635.81;5111311;28;20190;-64
2021/05/25 04:08:13;;;;;;;2.73;0.80;;;;;;;8.76;73.51;96628.47;5097371;28;20169;-65
2021/05/25 04:10:40;;;;;;;0.83;0.83;;;;;;;8.92;73.33;96634.91;5093270;28;20164;-63
2021/05/25 04:13:06;;;;;;;1.40;0.90;;;;;;;9.00;72.81;96639.84;5109539;28;20191;-64
2021/05/25 04:15:34;;;;;;;0.83;0.73;;;;;;;8.98;72.83;96642.66;5095207;28;20181;-65
2021/05/25 04:17:59;;;;;;;1.10;0.80;;;;;;;9.02;72.39;96643.84;5091069;28;20160;-65
2021/05/25 04:20:25;;;;;;;1.73;0.80;;;;;;;8.96;72.43;96644.72;5104245;28;20196;-65
2021/05/25 04:22:51;;;;;;;0.60;0.60;;;;;;;9.05;71.94;96648.63;5112189;28;20243;-64
2021/05/25 04:25:17;;;;;;;0.73;0.73;;;;;;;9.06;71.88;96667.72;5114381;28;20523;-66
2021/05/25 04:27:43;;;;;;;0.50;0.50;;;;;;;9.11;71.44;96667.84;5115163;28;20203;-64
2021/05/25 04:30:10;;;;;;;0.70;0.70;;;;;;;9.30;70.54;96674.69;5114904;28;20144;-64
2021/05/25 04:32:36;;;;;;;0.60;0.60;;;;;;;9.19;71.01;96670.97;5114059;28;20160;-65
2021/05/25 04:35:03;;;;;;;0.60;0.60;;;;;;;9.14;70.79;96672.63;5113663;28;20152;-64
2021/05/25 04:37:28;;;;;;;3.33;0.80;;;;;;;9.01;70.73;96664.97;5113443;28;20196;-64
2021/05/25 04:39:53;;;;;;;0.63;0.63;;;;;;;8.91;71.04;96673.34;5114484;28;20237;-64
2021/05/25 04:42:19;;;;;;;0.70;0.70;;;;;;;8.91;71.39;96672.53;5113931;28;20271;-66
2021/05/25 04:44:44;;;;;;;0.60;0.60;;;;;;;9.09;70.54;96673.31;5096768;28;20187;-64
2021/05/25 04:47:10;;;;;;;1.07;0.67;;;;;;;8.93;70.74;96675.72;5112640;28;20344;-65
2021/05/25 04:49:39;;;;;;;0.50;0.50;;;;;;;9.07;70.02;96679.78;5093438;28;20176;-64
2021/05/25 04:52:04;;;;;;;1.23;0.60;;;;;;;9.23;69.44;96688.84;5094305;28;20226;-64
2021/05/25 04:54:29;;;;;;;0.60;0.60;;;;;;;9.48;68.68;96698.16;5093508;28;20681;-65
2021/05/25 04:56:55;;;;;;;0.60;0.60;;;;;;;9.70;67.43;96688.00;5094989;28;20211;-64
2021/05/25 04:59:21;;;;;;;0.40;0.40;;;;;;;9.53;68.22;96702.72;5109196;28;20243;-64
2021/05/25 05:01:46;;;;;;;0.50;0.50;;;;;;;9.27;68.67;96696.03;5114052;28;20251;-64
2021/05/25 05:04:12;;;;;;;0.50;0.50;;;;;;;9.11;69.41;96700.03;5113726;28;20172;-64
2021/05/25 05:06:37;;;;;;;0.50;0.50;;;;;;;9.18;69.38;96711.22;5113350;28;20199;-64
2021/05/25 05:09:03;;;;;;;0.83;0.50;;;;;;;9.04;69.96;96704.53;5113986;28;20629;-65
2021/05/25 05:11:29;;;;;;;0.77;0.60;;;;;;;8.99;70.73;96719.28;5113216;28;20156;-63
2021/05/25 05:13:54;;;;;;;0.50;0.50;;;;;;;9.00;69.97;96707.81;5112221;28;20184;-63
2021/05/25 05:16:20;;;;;;;0.70;0.70;;;;;;;9.09;69.94;96711.72;5112363;28;20656;-63
2021/05/25 05:18:45;;;;;;;0.50;0.50;;;;;;;9.08;69.75;96718.75;5113646;28;20198;-64
2021/05/25 05:21:10;;;;;;;1.13;0.57;;;;;;;9.01;69.83;96730.31;5113698;28;20205;-64
2021/05/25 05:23:36;;;;;;;0.87;0.57;;;;;;;9.08;70.14;96721.38;5113077;28;20156;-64
2021/05/25 05:26:04;;;;;;;0.50;0.50;;;;;;;9.20;69.61;96718.81;5113845;28;20196;-67
2021/05/25 05:28:29;;;;;;;0.60;0.60;;;;;;;9.23;70.38;96722.84;5112880;28;20176;-64
2021/05/25 05:30:55;;;;;;;1.37;0.67;;;;;;;9.53;69.28;96721.03;5113222;28;20545;-65
2021/05/25 05:33:20;;;;;;;0.60;0.60;;;;;;;9.70;68.25;96724.63;5112460;28;20304;-63
2021/05/25 05:35:46;;;;;;;0.60;0.40;;;;;;;9.64;67.09;96722.91;5113745;28;20163;-65
2021/05/25 05:38:12;;;;;;;0.70;0.70;;;;;;;9.77;67.60;96730.59;5113535;28;20195;-65
2021/05/25 05:40:37;;;;;;;0.60;0.60;;;;;;;10.22;66.24;96724.94;5112973;28;20184;-64
2021/05/25 05:43:03;;;;;;;0.97;0.57;;;;;;;10.79;64.39;96739.91;5113840;28;20617;-65
2021/05/25 05:45:29;;;;;;;1.43;0.60;;;;;;;10.88;63.05;96747.41;5112478;28;20176;-64
2021/05/25 05:47:54;;;;;;;0.60;0.60;;;;;;;10.77;63.91;96736.69;5113321;28;20203;-65
2021/05/25 05:50:20;;;;;;;0.70;0.67;;;;;;;11.17;62.94;96739.41;5112951;28;20175;-64
2021/05/25 05:52:46;;;;;;;0.60;0.50;;;;;;;11.37;61.84;96735.59;5113168;28;20171;-64
2021/05/25 05:55:12;;;;;;;0.40;0.40;;;;;;;11.42;61.32;96733.88;5113421;28;20244;-64
2021/05/25 05:57:38;;;;;;;0.77;0.60;;;;;;;11.53;60.62;96734.88;5105274;28;20242;-64
2021/05/25 06:00:07;;;;;;;1.37;0.53;;;;;;;11.81;59.68;96745.41;5091922;28;20727;-64
2021/05/25 06:02:33;;;;;;;0.50;0.50;;;;;;;12.17;58.42;96743.38;5091429;28;20630;-65
2021/05/25 06:04:59;;;;;;;0.50;0.50;;;;;;;12.62;57.16;96743.31;5092287;28;20561;-64
2021/05/25 06:07:25;;;;;;;0.97;0.47;;;;;;;12.69;56.61;96744.75;5091385;28;20193;-64
2021/05/25 06:09:52;;;;;;;0.53;0.40;;;;;;;12.82;56.07;96749.66;5091565;28;20259;-64
2021/05/25 06:12:18;;;;;;;1.80;0.53;;;;;;;12.62;56.08;96748.59;5089556;28;20253;-65
2021/05/25 06:14:43;;;;;;;1.10;0.60;;;;;;;12.55;56.27;96754.00;5073771;28;20165;-67
2021/05/25 06:17:08;;;;;;;0.50;0.50;;;;;;;12.16;57.15;96750.47;5092145;28;20253;-66
2021/05/25 06:19:34;;;;;;;0.63;0.43;;;;;;;11.91;58.08;96758.72;5072557;28;20200;-67
2021/05/25 06:21:59;;;;;;;1.87;0.80;;;;;;;11.82;58.51;96754.84;5088999;28;20173;-67
2021/05/25 06:24:25;;;;;;;0.30;0.30;;;;;;;11.87;58.47;96754.94;5088602;28;20180;-68
2021/05/25 06:26:50;;;;;;;0.40;0.40;;;;;;;11.67;58.08;96757.19;5072955;28;20692;-66
2021/05/25 06:29:16;;;;;;;1.17;0.60;;;;;;;11.53;58.53;96751.41;5071399;28;20169;-67
2021/05/25 06:31:41;;;;;;;0.87;0.60;;;;;;;11.74;57.50;96759.69;5073024;28;20623;-66
2021/05/25 06:34:07;;;;;;;0.50;0.50;;;;;;;11.69;58.23;96749.88;5102392;28;20745;-66
2021/05/25 06:36:32;;;;;;;0.43;0.43;;;;;;;11.74;58.57;96765.75;5100204;28;20579;-66
2021/05/25 06:38:58;;;;;;;0.50;0.50;;;;;;;11.64;58.89;96757.66;5088527;28;20244;-66
2021/05/25 06:41:23;;;;;;;0.60;0.60;;;;;;;11.51;58.76;96760.53;5090458;28;20532;-66
2021/05/25 06:43:48;;;;;;;2.10;0.73;;;;;;;11.67;58.69;96772.94;5091132;28;20644;-66
2021/05/25 06:46:20;;;;;;;0.50;0.50;;;;;;;12.01;57.10;96771.22;5089845;28;20749;-66
2021/05/25 06:48:46;;;;;;;1.60;0.70;;;;;;;12.39;55.39;96762.69;5090187;28;20180;-66
2021/05/25 06:51:11;;;;;;;1.27;0.50;;;;;;;12.43;54.52;96769.03;5090995;28;20191;-66
2021/05/25 06:53:37;;;;;;;0.60;0.60;;;;;;;12.13;55.23;96763.28;5090737;28;20183;-66
2021/05/25 06:56:04;;;;;;;0.47;0.47;;;;;;;12.38;54.52;96777.66;5091334;28;20199;-66
2021/05/25 06:58:29;;;;;;;0.50;0.50;;;;;;;12.26;54.57;96765.63;5099985;28;20774;-66
2021/05/25 07:00:55;;;;;;;0.63;0.50;;;;;;;12.11;55.14;96781.91;5111404;28;20275;-65
2021/05/25 07:03:20;;;;;;;1.20;0.50;;;;;;;11.86;56.00;96763.88;5107499;28;20596;-66
2021/05/25 07:05:46;;;;;;;2.43;0.53;;;;;;;12.13;55.43;96769.34;5111561;28;20235;-65
2021/05/25 07:08:11;;;;;;;0.43;0.43;;;;;;;12.24;54.47;96775.56;5108717;28;20194;-65
2021/05/25 07:10:36;;;;;;;1.03;0.60;;;;;;;12.16;54.98;96786.47;5092646;28;20256;-66
2021/05/25 07:13:02;;;;;;;0.87;0.50;;;;;;;11.85;55.00;96783.28;5108287;28;20263;-66
2021/05/25 07:15:28;;;;;;;0.43;0.43;;;;;;;11.65;54.83;96777.59;5111004;28;20160;-66
2021/05/25 07:17:57;;;;;;;0.50;0.50;;;;;;;11.79;55.26;96776.34;5111530;28;20199;-66
2021/05/25 07:20:23;;;;;;;0.40;0.40;;;;;;;11.99;54.75;96778.53;5110664;28;20191;-66
2021/05/25 07:22:53;;;;;;;0.40;0.40;;;;;;;11.99;54.61;96770.66;5107317;28;20180;-66
2021/05/25 07:25:20;;;;;;;0.90;0.60;;;;;;;12.56;54.04;96757.44;5110716;28;20190;-66
2021/05/25 07:27:46;;;;;;;0.77;0.60;;;;;;;12.89;53.51;96762.66;5111314;28;20204;-66
2021/05/25 07:30:12;;;;;;;0.83;0.40;;;;;;;13.05;51.93;96769.72;5111659;28;20214;-66
2021/05/25 07:32:38;;;;;;;0.50;0.50;;;;;;;12.98;52.03;96766.50;5108763;28;20180;-67
2021/05/25 07:35:05;;;;;;;2.10;0.70;;;;;;;12.80;51.73;96770.19;5095391;28;20255;-66
2021/05/25 07:37:39;;;;;;;0.40;0.40;;;;;;;12.38;50.92;96769.75;5092370;28;20676;-67
2021/05/25 07:40:06;;;;;;;1.50;0.83;;;;;;;12.12;52.22;96777.47;5091576;28;20548;-67
2021/05/25 07:42:31;;;;;;;0.40;0.40;;;;;;;12.20;52.79;96770.00;5090603;28;20621;-67
2021/05/25 07:44:57;;;;;;;0.67;0.50;;;;;;;12.12;52.43;96777.47;5089877;28;20283;-67
2021/05/25 07:47:23;;;;;;;0.40;0.40;;;;;;;12.01;53.02;96784.38;5089975;28;20692;-67
2021/05/25 07:49:48;;;;;;;0.47;0.47;;;;;;;11.88;52.59;96780.19;5090997;28;20263;-67
2021/05/25 07:52:20;;;;;;;0.50;0.50;;;;;;;11.82;52.04;96783.75;5089633;28;20284;-67
2021/05/25 07:54:46;;;;;;;0.70;0.50;;;;;;;11.91;51.28;96776.31;5090985;28;20184;-66
2021/05/25 07:57:11;;;;;;;0.50;0.50;;;;;;;11.77;51.50;96765.28;5089891;28;20250;-66
2021/05/25 07:59:37;;;;;;;0.50;0.50;;;;;;;11.98;51.52;96774.34;5113198;28;20330;-66
2021/05/25 08:02:03;;;;;;;0.50;0.50;;;;;;;12.11;51.94;96779.28;5114778;28;20175;-66
2021/05/25 08:04:29;;;;;;;0.77;0.60;;;;;;;12.12;50.92;96782.72;5114072;28;20242;-66
2021/05/25 08:06:55;;;;;;;0.70;0.50;;;;;;;12.23;51.16;96773.97;5115022;28;20192;-66
2021/05/25 08:09:20;;;;;;;0.53;0.50;;;;;;;12.17;51.65;96785.44;5113827;28;20647;-67
2021/05/25 08:11:45;;;;;;;0.53;0.53;;;;;;;12.14;50.16;96797.22;5113018;28;20233;-66
2021/05/25 08:14:11;;;;;;;0.97;0.77;;;;;;;12.19;50.44;96813.06;5114828;28;20172;-66
2021/05/25 08:16:39;;;;;;;1.40;0.70;;;;;;;12.09;50.20;96794.50;5095670;28;20230;-66
2021/05/25 08:19:49;;;;;;;2.43;0.63;;;;;;;12.07;50.14;96818.38;5096320;28;20200;-67
2021/05/25 08:21:53;;;;;;;0.70;0.47;;;;;;;11.99;49.95;96805.59;5103619;28;20192;-66
2021/05/25 08:24:19;;;;;;;1.13;0.80;;;;;;;12.09;50.01;96821.56;5113835;28;20176;-67
2021/05/25 08:26:44;;;;;;;1.70;0.60;;;;;;;12.22;50.42;96817.84;5114528;28;20207;-67
2021/05/25 08:29:10;;;;;;;0.60;0.60;;;;;;;12.28;49.26;96818.72;5114489;28;20185;-67
2021/05/25 08:31:36;;;;;;;0.50;0.50;;;;;;;12.48;49.20;96824.38;5113767;28;20742;-67
2021/05/25 08:34:02;;;;;;;0.50;0.50;;;;;;;12.75;48.96;96819.28;5114206;28;20175;-67
2021/05/25 08:36:32;;;;;;;0.40;0.40;;;;;;;12.69;48.17;96822.84;5113648;28;20751;-67
2021/05/25 08:38:58;;;;;;;0.40;0.40;;;;;;;12.34;49.14;96842.25;5114363;28;20176;-67
2021/05/25 08:41:23;;;;;;;0.50;0.50;;;;;;;12.31;49.18;96837.47;5113551;28;20156;-67
2021/05/25 08:43:50;;;;;;;0.60;0.60;;;;;;;12.19;49.03;96849.06;5114277;28;20206;-67
2021/05/25 08:46:15;;;;;;;1.60;0.70;;;;;;;12.36;49.53;96848.06;5112946;28;20421;-67
2021/05/25 08:48:42;;;;;;;1.43;0.43;;;;;;;12.40;49.41;96843.94;5113927;28;20175;-67
2021/05/25 08:51:08;;;;;;;0.60;0.43;;;;;;;12.28;49.41;96840.56;5114065;28;20267;-67
2021/05/25 08:53:35;;;;;;;0.73;0.47;;;;;;;12.17;49.68;96848.50;5113333;28;20176;-67
2021/05/25 08:56:02;;;;;;;0.67;0.50;;;;;;;12.47;50.04;96846.41;5113858;28;20236;-67
2021/05/25 08:58:28;;;;;;;0.50;0.50;;;;;;;12.69;49.50;96846.53;5092650;28;20231;-67
2021/05/25 09:00:56;;;;;;;0.60;0.60;;;;;;;12.84;49.36;96841.50;5114051;28;20192;-67
2021/05/25 09:03:22;;;;;;;0.70;0.40;;;;;;;12.73;48.29;96845.00;5113343;28;20512;-67
2021/05/25 09:05:59;;;;;;;0.50;0.50;;;;;;;12.55;48.35;96851.28;5113661;28;20163;-67
2021/05/25 09:08:27;;;;;;;0.53;0.50;;;;;;;12.41;49.02;96866.56;5112385;28;20180;-68
2021/05/25 09:10:59;;;;;;;0.73;0.43;;;;;;;12.42;49.66;96877.88;5111410;28;20172;-67
2021/05/25 09:13:25;;;;;;;0.40;0.40;;;;;;;12.29;50.10;96876.31;5112794;28;20165;-67
2021/05/25 09:15:54;;;;;;;2.50;0.60;;;;;;;12.50;49.47;96877.47;5113495;28;20221;-67
2021/05/25 09:18:23;;;;;;;0.53;0.50;;;;;;;12.64;49.04;96889.31;5112733;28;20171;-68
2021/05/25 09:20:51;;;;;;;0.60;0.40;;;;;;;12.47;48.57;96873.50;5114001;28;20192;-67
2021/05/25 09:23:22;;;;;;;0.57;0.50;;;;;;;12.64;48.98;96885.88;5113289;28;20167;-68
2021/05/25 09:25:56;;;;;;;0.40;0.40;;;;;;;12.81;48.33;96895.41;5113295;28;20152;-68
2021/05/25 09:28:22;;;;;;;0.60;0.60;;;;;;;13.26;47.83;96892.69;5112602;28;20538;-68
2021/05/25 09:30:48;;;;;;;0.57;0.50;;;;;;;13.19;48.02;96891.28;5113447;28;20266;-68
2021/05/25 09:33:15;;;;;;;0.70;0.40;;;;;;;13.02;47.84;96893.09;5113680;28;20165;-68
2021/05/25 09:35:44;;;;;;;0.63;0.60;;;;;;;12.84;48.46;96886.22;5094523;28;20168;-68
2021/05/25 09:38:12;;;;;;;0.43;0.43;;;;;;;13.01;48.18;96899.38;5113516;28;20159;-68
2021/05/25 09:40:41;;;;;;;0.40;0.40;;;;;;;12.80;48.73;96906.16;5112412;28;20180;-68
2021/05/25 09:43:11;;;;;;;0.40;0.40;;;;;;;12.86;48.59;96905.22;5112513;28;20190;-66
2021/05/25 09:45:36;;;;;;;0.93;0.40;;;;;;;12.63;49.57;96903.50;5111949;28;20184;-68
2021/05/25 09:48:05;;;;;;;3.00;0.60;;;;;;;12.60;49.59;96909.22;5112593;28;20180;-70
2021/05/25 09:50:37;;;;;;;0.50;0.50;;;;;;;12.61;48.60;96908.19;5094504;28;20200;-68
2021/05/25 09:53:19;;;;;;;0.60;0.60;;;;;;;12.61;49.25;96899.50;5113660;28;20160;-67
2021/05/25 09:55:53;;;;;;;1.63;0.43;;;;;;;12.59;49.07;96899.75;5113117;28;20204;-67
2021/05/25 09:58:21;;;;;;;0.60;0.60;;;;;;;12.49;49.41;96910.84;5100375;28;20220;-67
2021/05/25 10:00:48;;;;;;;0.57;0.57;;;;;;;12.32;49.61;96899.50;5092018;28;20199;-68
2021/05/25 10:03:17;;;;;;;1.33;0.60;;;;;;;12.41;49.54;96913.09;5092581;28;20240;-68
2021/05/25 10:06:00;;;;;;;0.50;0.50;;;;;;;12.53;49.85;96928.81;5108928;28;20192;-68
2021/05/25 10:08:25;;;;;;;0.80;0.40;;;;;;;12.39;49.37;96915.94;5111353;28;20168;-68
2021/05/25 10:10:56;;;;;;;0.50;0.50;;;;;;;12.21;48.45;96900.34;5092063;28;20168;-68
2021/05/25 10:13:23;;;;;;;0.73;0.53;;;;;;;12.27;48.09;96917.81;5091568;28;20244;-68
2021/05/25 10:15:50;;;;;;;0.67;0.67;;;;;;;12.41;48.58;96913.88;5091573;28;20240;-68
2021/05/25 10:21:00;;;;;;;0.80;0.60;;;;;;;12.43;48.38;96911.00;5091285;28;20196;-68
2021/05/25 10:23:32;;;;;;;1.50;0.60;;;;;;;12.45;48.47;96922.88;5091622;28;20165;-68
2021/05/25 10:25:58;;;;;;;1.00;0.60;;;;;;;12.57;48.88;96936.00;5091864;28;20229;-68
2021/05/25 10:28:24;;;;;;;0.70;0.50;;;;;;;12.90;48.45;96933.44;5091276;28;20229;-68
2021/05/25 10:30:51;;;;;;;0.50;0.50;;;;;;;13.29;47.15;96928.28;5073567;28;20696;-68
2021/05/25 10:33:36;;;;;;;0.77;0.60;;;;;;;13.62;45.90;96922.19;5090564;28;20690;-68
2021/05/25 10:36:08;;;;;;;1.90;0.70;;;;;;;13.66;45.68;96921.47;5089401;28;20707;-68
2021/05/25 10:38:53;;;;;;;0.60;0.60;;;;;;;13.72;45.70;96909.97;5090548;28;20263;-68
2021/05/25 10:41:27;;;;;;;0.97;0.60;;;;;;;13.59;45.60;96918.22;5089495;28;20207;-68
2021/05/25 10:43:55;;;;;;;0.80;0.80;;;;;;;13.47;45.43;96925.41;5075404;28;20193;-68
2021/05/25 10:46:23;;;;;;;1.67;0.60;;;;;;;13.64;45.26;96925.41;5090316;28;20193;-68
2021/05/25 10:49:26;;;;;;;0.90;0.60;;;;;;;13.73;44.86;96916.03;5089908;28;20555;-68
2021/05/25 10:51:52;;;;;;;0.67;0.63;;;;;;;13.69;45.07;96936.00;5075155;28;20230;-68
2021/05/25 10:54:34;;;;;;;1.40;0.60;;;;;;;13.37;46.33;96929.75;5090509;28;20176;-69
2021/05/25 10:57:04;;;;;;;4.63;0.70;;;;;;;13.22;46.52;96953.97;5070840;28;20196;-68
2021/05/25 11:00:03;;;;;;;0.57;0.57;;;;;;;13.22;47.26;96962.66;5097433;28;20231;-66
2021/05/25 11:02:52;;;;;;;0.43;0.40;;;;;;;12.95;47.06;96950.31;5090779;28;20634;-67
2021/05/25 11:05:26;;;;;;;0.93;0.60;;;;;;;13.16;47.59;96954.91;5095524;28;20529;-68
2021/05/25 11:07:52;;;;;;;0.90;0.60;;;;;;;13.38;48.13;96941.84;5110368;28;20646;-67
2021/05/25 11:10:27;;;;;;;0.70;0.70;;;;;;;13.59;47.32;96949.84;5100995;28;20176;-67
2021/05/25 11:13:17;;;;;;;1.50;0.80;;;;;;;13.41;47.62;96942.19;5095860;28;20609;-67
2021/05/25 11:16:21;;;;;;;3.90;0.60;;;;;;;13.20;48.55;96950.78;5091249;28;20172;-67
2021/05/25 11:19:06;;;;;;;1.23;0.60;;;;;;;13.14;48.67;96941.22;5091754;28;20181;-67
2021/05/25 11:21:38;;;;;;;1.07;0.60;;;;;;;12.86;51.28;96949.94;5092404;28;20163;-68
2021/05/25 11:24:34;;;;;;;2.10;1.20;;;;;;;12.61;54.25;96954.72;5091895;28;20171;-67
2021/05/25 11:27:12;;;;;;;1.53;0.60;;;;;;;12.28;55.61;96982.47;5095422;28;20201;-66
2021/05/25 11:29:41;;;;;;;3.67;0.80;;;;;;;11.83;56.70;96989.38;5084402;28;20746;-65
2021/05/25 11:32:13;;;;;;;0.57;0.57;;;;;;;11.99;59.15;96981.59;5104105;28;20175;-67
2021/05/25 11:34:40;;;;;;;0.53;0.53;;;;;;;12.23;59.21;96981.56;5103940;28;20360;-66
2021/05/25 11:37:08;;;;;;;0.87;0.40;;;;;;;12.04;58.33;96973.84;5110016;28;20206;-65
2021/05/25 11:39:35;;;;;;;0.83;0.50;;;;;;;12.14;58.48;96969.84;5098291;28;20690;-65
2021/05/25 11:42:02;;;;;;;1.77;0.50;;;;;;;12.27;56.86;96978.25;5105738;28;20200;-65
2021/05/25 11:44:36;;;;;;;0.60;0.50;;;;;;;12.32;55.54;96967.84;5105373;28;20183;-65